createdAt,value
2023-03-25T00:01:34.411Z,48.91
2023-03-25T00:04:04.559Z,48.80
2023-03-25T00:06:35.981Z,48.86
2023-03-25T00:09:07.527Z,48.82
2023-03-25T00:11:37.830Z,48.85
2023-03-25T00:14:06.537Z,48.74
2023-03-25T00:16:41.886Z,48.64
2023-03-25T00:19:10.053Z,48.63
2023-03-25T00:21:40.076Z,48.57
2023-03-25T00:24:08.259Z,48.51
2023-03-25T00:26:42.770Z,48.34
2023-03-25T00:29:11.048Z,48.41
2023-03-25T00:31:40.554Z,48.41
2023-03-25T00:34:09.340Z,48.38
2023-03-25T00:36:38.949Z,48.93
2023-03-25T00:39:08.575Z,49.39
2023-03-25T00:41:37.301Z,49.38
2023-03-25T00:44:06.351Z,49.54
2023-03-25T00:46:34.543Z,49.33
2023-03-25T00:49:04.456Z,49.04
2023-03-25T00:51:36.193Z,48.89
2023-03-25T00:54:23.780Z,48.68
2023-03-25T00:56:53.610Z,48.39
2023-03-25T00:59:22.121Z,48.30
2023-03-25T01:01:53.447Z,48.13
2023-03-25T01:04:22.131Z,47.90
2023-03-25T01:06:52.245Z,47.79
2023-03-25T01:09:21.438Z,47.70
2023-03-25T01:11:50.924Z,47.40
2023-03-25T01:14:21.126Z,47.30
2023-03-25T01:16:50.402Z,47.21
2023-03-25T01:19:18.772Z,47.04
2023-03-25T01:21:48.380Z,47.03
2023-03-25T01:24:16.865Z,46.74
2023-03-25T01:26:47.084Z,46.68
2023-03-25T01:29:17.632Z,46.71
2023-03-25T01:31:46.243Z,46.70
2023-03-25T01:34:14.988Z,46.74
2023-03-25T01:36:46.683Z,46.72
2023-03-25T01:39:19.434Z,46.71
2023-03-25T01:41:50.555Z,46.67
2023-03-25T01:44:19.459Z,46.50
2023-03-25T01:46:49.558Z,46.56
2023-03-25T01:49:30.359Z,46.56
2023-03-25T01:52:02.645Z,46.38
2023-03-25T01:54:30.910Z,46.34
2023-03-25T01:56:59.036Z,46.26
2023-03-25T01:59:28.471Z,46.06
2023-03-25T02:02:02.309Z,45.98
2023-03-25T02:04:39.332Z,45.80
2023-03-25T02:07:08.844Z,45.80
2023-03-25T02:09:38.826Z,45.74
2023-03-25T02:12:09.047Z,45.70
2023-03-25T02:14:39.367Z,45.66
2023-03-25T02:17:18.879Z,45.70
2023-03-25T02:20:19.465Z,45.83
2023-03-25T02:23:23.123Z,45.76
2023-03-25T02:26:16.894Z,45.72
2023-03-25T02:28:53.054Z,45.67
2023-03-25T02:31:48.841Z,45.73
2023-03-25T02:34:38.596Z,45.68
2023-03-25T02:37:38.376Z,45.84
2023-03-25T02:40:11.977Z,45.83
2023-03-25T02:42:45.063Z,45.77
2023-03-25T02:45:45.340Z,45.75
2023-03-25T02:48:18.175Z,45.79
2023-03-25T02:50:48.914Z,45.83
2023-03-25T02:53:23.023Z,45.78
2023-03-25T02:55:52.000Z,45.81
2023-03-25T02:58:21.727Z,45.85
2023-03-25T03:00:51.060Z,45.95
2023-03-25T03:03:21.771Z,45.98
2023-03-25T03:05:51.140Z,45.99
2023-03-25T03:08:27.537Z,46.09
2023-03-25T03:11:07.079Z,46.19
2023-03-25T03:14:27.579Z,46.26
2023-03-25T03:17:11.042Z,46.23
2023-03-25T03:19:41.746Z,46.36
2023-03-25T03:22:14.436Z,46.32
2023-03-25T03:24:52.790Z,46.33
2023-03-25T03:27:34.245Z,46.61
2023-03-25T03:30:10.893Z,46.84
2023-03-25T03:33:01.325Z,46.79
2023-03-25T03:36:03.372Z,46.79
2023-03-25T03:38:35.766Z,46.86
2023-03-25T03:41:11.695Z,46.99
2023-03-25T03:43:49.189Z,47.10
2023-03-25T03:46:24.020Z,47.10
2023-03-25T03:48:54.865Z,47.07
2023-03-25T03:51:38.058Z,47.03
2023-03-25T03:54:26.839Z,47.11
2023-03-25T03:57:14.468Z,47.11
2023-03-25T03:59:43.053Z,47.02
2023-03-25T04:02:24.535Z,46.99
2023-03-25T04:04:54.182Z,47.18
2023-03-25T04:07:39.104Z,47.21
2023-03-25T04:10:19.173Z,47.03
2023-03-25T04:12:52.268Z,47.11
2023-03-25T04:15:23.302Z,47.21
2023-03-25T04:17:53.110Z,47.14
2023-03-25T04:20:24.140Z,47.11
2023-03-25T04:22:52.627Z,47.09
2023-03-25T04:25:25.744Z,47.16
2023-03-25T04:27:59.182Z,47.26
2023-03-25T04:30:28.384Z,47.24
2023-03-25T04:32:57.386Z,47.30
2023-03-25T04:35:28.992Z,47.22
2023-03-25T04:37:57.967Z,47.29
2023-03-25T04:40:26.604Z,47.34
2023-03-25T04:42:56.990Z,47.35
2023-03-25T04:45:25.869Z,47.43
2023-03-25T04:47:56.332Z,47.50
2023-03-25T04:50:28.368Z,47.54
2023-03-25T04:53:02.685Z,47.64
2023-03-25T04:55:34.856Z,47.71
2023-03-25T04:58:03.231Z,47.72
2023-03-25T05:00:34.069Z,47.84
2023-03-25T05:03:02.887Z,47.99
2023-03-25T05:05:31.540Z,48.00
2023-03-25T05:08:01.659Z,48.20
2023-03-25T05:10:30.758Z,48.54
2023-03-25T05:13:04.048Z,48.75
2023-03-25T05:32:46.036Z,48.32
2023-03-25T05:35:14.297Z,47.40
2023-03-25T05:37:44.059Z,47.28
2023-03-25T05:40:15.233Z,47.29
2023-03-25T05:42:46.913Z,47.44
2023-03-25T05:45:16.665Z,47.38
2023-03-25T05:47:46.249Z,47.31
2023-03-25T05:50:17.480Z,47.44
2023-03-25T05:52:49.581Z,47.79
2023-03-25T05:55:20.801Z,47.88
2023-03-25T05:57:50.003Z,47.91
2023-03-25T06:00:19.877Z,47.99
2023-03-25T06:02:49.117Z,48.07
2023-03-25T06:05:18.018Z,48.06
2023-03-25T06:07:47.627Z,48.12
2023-03-25T06:10:17.429Z,48.05
2023-03-25T06:12:47.090Z,48.09
2023-03-25T06:15:18.325Z,48.14
2023-03-25T06:17:52.195Z,48.14
2023-03-25T06:20:20.456Z,48.20
2023-03-25T06:22:50.918Z,48.22
2023-03-25T06:25:20.957Z,48.32
2023-03-25T06:27:50.108Z,48.40
2023-03-25T06:30:22.282Z,48.45
2023-03-25T06:33:11.015Z,48.56
2023-03-25T06:35:45.392Z,48.69
2023-03-25T06:38:14.235Z,48.77
2023-03-25T06:41:02.686Z,48.91
2023-03-25T06:43:34.558Z,48.97
2023-03-25T06:46:25.814Z,49.12
2023-03-25T06:49:21.610Z,49.13
2023-03-25T06:51:50.897Z,49.19
2023-03-25T06:54:26.235Z,49.35
2023-03-25T06:56:54.742Z,49.37
2023-03-25T06:59:23.703Z,49.42
2023-03-25T07:01:52.239Z,49.51
2023-03-25T07:04:20.696Z,49.54
2023-03-25T07:06:57.882Z,49.53
2023-03-25T07:09:27.365Z,49.48
2023-03-25T07:11:56.054Z,49.38
2023-03-25T07:14:29.923Z,49.24
2023-03-25T07:16:58.248Z,48.99
2023-03-25T07:19:32.964Z,48.77
2023-03-25T07:22:02.679Z,48.59
2023-03-25T07:24:32.797Z,48.45
2023-03-25T07:27:01.226Z,48.39
2023-03-25T07:29:30.557Z,48.34
2023-03-25T07:31:58.964Z,48.29
2023-03-25T07:34:27.437Z,48.51
2023-03-25T07:36:56.431Z,48.35
2023-03-25T07:39:25.740Z,48.13
2023-03-25T07:41:55.529Z,47.87
2023-03-25T07:44:43.737Z,47.68
2023-03-25T07:47:13.705Z,47.36
2023-03-25T07:49:42.276Z,47.18
2023-03-25T07:52:10.565Z,47.18
2023-03-25T07:54:39.254Z,47.09
2023-03-25T07:57:07.583Z,47.01
2023-03-25T07:59:38.161Z,47.12
2023-03-25T08:02:06.878Z,47.07
2023-03-25T08:04:35.434Z,47.00
2023-03-25T08:07:04.761Z,47.09
2023-03-25T08:09:33.832Z,47.28
2023-03-25T08:12:02.343Z,47.23
2023-03-25T08:14:31.714Z,47.08
2023-03-25T08:17:00.766Z,46.93
2023-03-25T08:19:34.072Z,46.88
2023-03-25T08:22:05.654Z,46.89
2023-03-25T08:24:34.447Z,47.04
2023-03-25T08:27:15.238Z,46.92
2023-03-25T08:29:47.311Z,47.04
2023-03-25T08:32:15.560Z,46.95
2023-03-25T08:34:43.729Z,46.98
2023-03-25T08:37:14.464Z,46.95
2023-03-25T08:39:45.300Z,46.59
2023-03-25T08:42:13.898Z,46.55
2023-03-25T08:44:42.106Z,46.64
2023-03-25T08:47:11.346Z,46.47
2023-03-25T08:49:41.691Z,46.25
2023-03-25T08:52:11.503Z,46.24
2023-03-25T08:54:40.390Z,46.09
2023-03-25T08:57:09.456Z,45.96
2023-03-25T08:59:38.095Z,45.77
2023-03-25T09:02:06.541Z,45.74
2023-03-25T09:04:41.000Z,45.77
2023-03-25T09:07:12.526Z,45.88
2023-03-25T09:09:41.469Z,45.44
2023-03-25T09:12:13.388Z,45.11
2023-03-25T09:14:41.972Z,44.79
2023-03-25T09:17:11.117Z,44.93
2023-03-25T09:19:41.121Z,44.96
2023-03-25T09:22:09.363Z,44.85
2023-03-25T09:24:37.945Z,44.91
2023-03-25T09:27:07.040Z,44.30
2023-03-25T09:29:35.312Z,44.15
2023-03-25T09:32:18.857Z,43.90
2023-03-25T09:34:48.579Z,43.81
2023-03-25T09:37:16.835Z,43.73
2023-03-25T09:39:46.217Z,43.36
2023-03-25T09:42:25.679Z,43.41
2023-03-25T09:45:12.055Z,43.63
2023-03-25T09:47:52.372Z,43.73
2023-03-25T09:50:20.632Z,43.88
2023-03-25T09:53:02.053Z,44.04
2023-03-25T09:55:33.143Z,43.81
2023-03-25T09:58:23.557Z,43.68
2023-03-25T10:01:05.788Z,43.90
2023-03-25T10:03:56.890Z,44.04
2023-03-25T10:06:27.338Z,44.16
2023-03-25T10:09:12.500Z,44.36
2023-03-25T10:12:19.286Z,44.41
2023-03-25T10:14:51.510Z,44.34
2023-03-25T10:17:40.560Z,44.34
2023-03-25T10:20:18.903Z,44.27
2023-03-25T10:23:17.657Z,44.45
2023-03-25T10:25:46.319Z,44.50
2023-03-25T10:28:26.576Z,44.61
2023-03-25T10:30:55.067Z,44.47
2023-03-25T10:33:41.713Z,44.26
2023-03-25T10:36:18.192Z,44.23
2023-03-25T10:38:47.390Z,44.02
2023-03-25T10:41:37.243Z,44.07
2023-03-25T10:44:10.337Z,43.99
2023-03-25T10:47:06.490Z,44.06
2023-03-25T10:49:37.310Z,44.04
2023-03-25T10:52:05.821Z,44.19
2023-03-25T10:54:39.823Z,44.30
2023-03-25T10:57:17.044Z,43.94
2023-03-25T11:00:16.843Z,43.58
2023-03-25T11:02:45.819Z,43.75
2023-03-25T11:05:18.926Z,43.97
2023-03-25T11:07:58.902Z,43.83
2023-03-25T11:10:32.673Z,43.75
2023-03-25T11:13:07.078Z,43.54
2023-03-25T11:15:36.407Z,43.75
2023-03-25T11:18:13.973Z,43.91
2023-03-25T11:20:56.135Z,43.60
2023-03-25T11:23:57.326Z,43.66
2023-03-25T11:26:30.519Z,43.48
2023-03-25T11:29:04.499Z,43.48
2023-03-25T11:31:36.797Z,43.56
2023-03-25T11:34:10.861Z,43.43
2023-03-25T11:36:56.089Z,43.11
2023-03-25T11:39:33.477Z,42.86
2023-03-25T11:42:10.671Z,42.80
2023-03-25T11:44:39.215Z,43.09
2023-03-25T11:47:08.459Z,43.30
2023-03-25T11:49:40.231Z,43.28
2023-03-25T11:52:10.014Z,43.36
2023-03-25T11:54:39.315Z,43.44
2023-03-25T11:57:12.949Z,43.63
2023-03-25T11:59:48.862Z,43.58
2023-03-25T12:02:29.197Z,43.35
2023-03-25T12:04:57.839Z,43.45
2023-03-25T12:07:27.367Z,43.71
2023-03-25T12:09:58.084Z,43.80
2023-03-25T12:12:41.455Z,43.88
2023-03-25T12:15:27.720Z,43.76
2023-03-25T12:18:06.833Z,43.30
2023-03-25T12:21:08.906Z,42.99
2023-03-25T12:23:46.326Z,43.20
2023-03-25T12:26:19.225Z,43.06
2023-03-25T12:29:01.287Z,42.67
2023-03-25T12:31:40.477Z,42.80
2023-03-25T12:34:38.934Z,42.89
2023-03-25T12:37:28.107Z,42.80
2023-03-25T12:40:22.094Z,42.82
2023-03-25T12:42:57.487Z,42.63
2023-03-25T12:45:57.958Z,42.73
2023-03-25T12:48:34.434Z,42.79
2023-03-25T12:51:17.980Z,42.73
2023-03-25T12:54:08.967Z,43.12
2023-03-25T12:56:37.107Z,43.55
2023-03-25T12:59:26.313Z,43.44
2023-03-25T13:01:57.430Z,42.98
2023-03-25T13:04:57.267Z,42.55
2023-03-25T13:07:28.959Z,41.64
2023-03-25T13:10:05.765Z,41.37
2023-03-25T13:12:54.279Z,40.81
2023-03-25T13:15:37.598Z,39.98
2023-03-25T13:18:09.005Z,39.77
2023-03-25T13:20:40.339Z,39.11
2023-03-25T13:23:11.223Z,39.05
2023-03-25T13:25:46.719Z,39.07
2023-03-25T13:28:18.068Z,38.84
2023-03-25T13:30:47.273Z,38.62
2023-03-25T13:33:19.535Z,38.18
2023-03-25T13:35:57.677Z,38.20
2023-03-25T13:38:31.058Z,38.36
2023-03-25T13:41:18.392Z,38.37
2023-03-25T13:44:24.405Z,38.58
2023-03-25T13:46:58.961Z,38.92
2023-03-25T13:49:35.579Z,39.39
2023-03-25T13:52:04.207Z,39.56
2023-03-25T13:54:34.977Z,39.81
2023-03-25T13:57:13.811Z,40.00
2023-03-25T13:59:57.000Z,39.60
2023-03-25T14:02:44.181Z,39.30
2023-03-25T14:05:24.708Z,39.52
2023-03-25T14:08:49.069Z,39.83
2023-03-25T14:11:26.013Z,39.96
2023-03-25T14:14:01.783Z,40.34
2023-03-25T14:16:34.118Z,40.67
2023-03-25T14:19:18.340Z,40.89
2023-03-25T14:21:50.113Z,40.93
2023-03-25T14:24:27.173Z,41.32
2023-03-25T14:27:01.100Z,41.47
2023-03-25T14:29:56.902Z,41.65
2023-03-25T14:32:32.600Z,41.83
2023-03-25T14:35:35.662Z,42.06
2023-03-25T14:38:10.080Z,42.21
2023-03-25T14:40:50.693Z,42.27
2023-03-25T14:43:40.720Z,42.43
2023-03-25T14:46:13.234Z,42.43
2023-03-25T14:48:52.712Z,42.60
2023-03-25T14:51:27.550Z,42.76
2023-03-25T14:54:29.900Z,43.05
2023-03-25T14:57:07.915Z,43.53
2023-03-25T14:59:39.943Z,43.62
2023-03-25T15:02:17.118Z,43.82
2023-03-25T15:04:45.329Z,43.89
2023-03-25T15:07:18.070Z,43.87
2023-03-25T15:09:53.886Z,43.90
2023-03-25T15:12:24.238Z,43.91
2023-03-25T15:14:57.386Z,44.33
2023-03-25T15:17:46.238Z,44.59
2023-03-25T15:20:24.500Z,44.62
2023-03-25T15:23:19.746Z,44.48
2023-03-25T15:25:52.621Z,44.38
2023-03-25T15:28:42.780Z,44.55
2023-03-25T15:31:40.493Z,45.59
2023-03-25T15:34:46.203Z,46.20
2023-03-25T15:37:46.957Z,46.78
2023-03-25T15:40:21.923Z,47.00
2023-03-25T15:43:15.454Z,47.27
2023-03-25T15:46:20.796Z,47.68
2023-03-25T15:49:07.889Z,47.51
2023-03-25T15:51:42.227Z,47.13
2023-03-25T15:54:36.728Z,46.68
2023-03-25T15:57:27.013Z,46.69
2023-03-25T16:00:17.049Z,46.94
2023-03-25T16:02:59.573Z,47.24
2023-03-25T16:05:36.695Z,47.41
2023-03-25T16:08:11.683Z,47.38
2023-03-25T16:10:41.648Z,47.69
2023-03-25T16:13:16.901Z,47.93
2023-03-25T16:15:45.780Z,47.83
2023-03-25T16:18:15.014Z,47.87
2023-03-25T16:20:43.461Z,47.94
2023-03-25T16:23:20.643Z,48.08
2023-03-25T16:25:49.618Z,48.45
2023-03-25T16:28:27.783Z,48.70
2023-03-25T16:30:56.909Z,48.85
2023-03-25T16:33:30.032Z,48.94
2023-03-25T16:36:00.432Z,48.82
2023-03-25T16:38:29.031Z,48.61
2023-03-25T16:41:24.076Z,48.49
2023-03-25T16:43:53.529Z,48.90
2023-03-25T16:46:21.655Z,49.60
2023-03-25T16:48:52.479Z,50.01
2023-03-25T16:51:29.187Z,49.96
2023-03-25T16:53:59.675Z,50.28
2023-03-25T16:56:32.684Z,50.90
2023-03-25T16:59:04.761Z,51.38
2023-03-25T17:01:42.669Z,51.56
2023-03-25T17:04:11.794Z,51.98
2023-03-25T17:06:52.906Z,52.77
2023-03-25T17:09:24.716Z,52.63
2023-03-25T17:11:56.759Z,51.76
2023-03-25T17:14:33.693Z,51.32
2023-03-25T17:17:22.162Z,51.29
2023-03-25T17:19:51.662Z,51.25
2023-03-25T17:22:36.415Z,51.47
2023-03-25T17:25:28.323Z,52.06
2023-03-25T17:28:00.979Z,52.46
2023-03-25T17:30:29.186Z,52.41
2023-03-25T17:33:10.458Z,52.47
2023-03-25T17:35:40.093Z,52.82
2023-03-25T17:50:57.022Z,52.29
2023-03-25T17:53:24.761Z,51.41
2023-03-25T18:12:24.817Z,52.25
2023-03-25T18:14:53.808Z,52.08
2023-03-25T18:17:22.807Z,52.36
2023-03-25T18:19:56.701Z,52.47
2023-03-25T18:22:25.178Z,52.58
2023-03-25T18:24:53.646Z,52.88
2023-03-25T18:27:27.821Z,53.36
2023-03-25T18:30:15.833Z,54.06
2023-03-25T18:32:44.377Z,54.53
2023-03-25T18:35:12.584Z,54.71
2023-03-25T18:37:41.885Z,54.36
2023-03-25T18:40:23.459Z,53.97
2023-03-25T18:42:53.201Z,53.98
2023-03-25T18:45:22.715Z,53.77
2023-03-25T18:47:51.413Z,53.83
2023-03-25T18:50:31.515Z,53.91
2023-03-25T18:53:01.819Z,54.45
2023-03-25T18:55:31.691Z,54.99
2023-03-25T18:58:00.064Z,55.39
2023-03-25T19:00:38.710Z,55.48
2023-03-25T19:03:07.112Z,55.36
2023-03-25T19:05:35.590Z,55.08
2023-03-25T19:08:05.917Z,54.73
2023-03-25T19:10:34.952Z,54.49
2023-03-25T19:13:08.528Z,53.96
2023-03-25T19:15:38.530Z,53.74
2023-03-25T19:18:06.849Z,53.25
2023-03-25T19:20:41.408Z,53.08
2023-03-25T19:23:10.652Z,52.96
2023-03-25T19:25:40.648Z,52.76
2023-03-25T19:28:09.577Z,52.76
2023-03-25T19:30:38.561Z,52.89
2023-03-25T19:33:07.283Z,52.99
2023-03-25T19:35:37.342Z,52.93
2023-03-25T19:38:06.319Z,52.70
2023-03-25T19:40:40.897Z,52.31
2023-03-25T19:43:09.697Z,52.22
2023-03-25T19:45:37.971Z,52.16
2023-03-25T19:48:06.525Z,51.95
2023-03-25T19:50:35.443Z,52.07
2023-03-25T19:53:06.789Z,52.06
2023-03-25T19:55:34.976Z,52.36
2023-03-25T19:58:04.176Z,52.79
2023-03-25T20:00:36.430Z,52.88
2023-03-25T20:03:06.557Z,52.92
2023-03-25T20:05:36.396Z,53.00
2023-03-25T20:08:05.254Z,52.90
2023-03-25T20:10:34.463Z,52.89
2023-03-25T20:13:02.936Z,52.88
2023-03-25T20:15:31.645Z,52.77
2023-03-25T20:18:00.384Z,53.37
2023-03-25T20:20:29.100Z,53.57
2023-03-25T20:22:57.388Z,54.37
2023-03-25T20:25:25.660Z,54.93
2023-03-25T20:27:56.085Z,55.22
2023-03-25T20:30:25.184Z,55.53
2023-03-25T20:32:53.401Z,56.01
2023-03-25T20:35:21.754Z,56.39
2023-03-25T20:37:52.277Z,56.79
2023-03-25T20:40:23.529Z,57.15
2023-03-25T20:43:00.850Z,57.43
2023-03-25T20:45:30.532Z,57.92
2023-03-25T20:47:59.444Z,58.16
2023-03-25T20:50:27.882Z,58.55
2023-03-25T20:52:56.482Z,59.13
2023-03-25T20:55:24.748Z,59.72
2023-03-25T20:57:53.324Z,60.03
2023-03-25T21:00:21.908Z,60.49
2023-03-25T21:02:50.963Z,60.97
2023-03-25T21:05:19.384Z,61.44
2023-03-25T21:07:48.481Z,61.80
2023-03-25T21:10:16.965Z,62.09
2023-03-25T21:12:53.636Z,62.43
2023-03-25T21:15:22.935Z,62.64
2023-03-25T21:17:51.110Z,62.85
2023-03-25T21:20:29.014Z,62.97
2023-03-25T21:22:59.267Z,63.18
2023-03-25T21:25:35.605Z,63.24
2023-03-25T21:28:04.594Z,63.32
2023-03-25T21:30:32.878Z,63.42
2023-03-25T21:33:01.576Z,63.58
2023-03-25T21:35:30.050Z,63.63
2023-03-25T21:38:01.094Z,64.03
2023-03-25T21:40:39.908Z,64.18
2023-03-25T21:43:08.604Z,64.42
2023-03-25T21:45:37.696Z,64.73
2023-03-25T21:48:09.115Z,65.30
2023-03-25T21:50:39.957Z,65.66
2023-03-25T21:53:13.385Z,65.87
2023-03-25T21:55:49.855Z,66.18
2023-03-25T21:58:18.850Z,66.56
2023-03-25T22:00:47.007Z,66.69
2023-03-25T22:03:18.972Z,66.98
2023-03-25T22:05:47.450Z,67.14
2023-03-25T22:08:19.720Z,67.27
2023-03-25T22:10:49.227Z,67.40
2023-03-25T22:13:17.558Z,67.62
2023-03-25T22:15:46.713Z,67.93
2023-03-25T22:18:15.594Z,67.75
2023-03-25T22:20:44.434Z,67.90
2023-03-25T22:23:14.300Z,67.93
2023-03-25T22:25:44.314Z,67.95
2023-03-25T22:28:12.292Z,67.99
2023-03-25T22:30:40.906Z,67.97
2023-03-25T22:33:09.675Z,67.93
2023-03-25T22:35:38.779Z,67.78
2023-03-25T22:38:07.240Z,67.68
2023-03-25T22:40:35.715Z,67.63
2023-03-25T22:43:03.832Z,67.83
2023-03-25T22:45:31.956Z,67.91
2023-03-25T22:48:01.143Z,68.06
2023-03-25T22:50:31.611Z,67.96
2023-03-25T22:53:00.579Z,67.95
2023-03-25T22:55:28.760Z,67.99
2023-03-25T22:57:56.880Z,67.94
2023-03-25T23:00:26.384Z,67.67
2023-03-25T23:02:54.798Z,67.81
2023-03-25T23:05:23.609Z,68.07
2023-03-25T23:07:51.784Z,68.06
2023-03-25T23:10:20.066Z,68.05
2023-03-25T23:12:50.183Z,67.92
2023-03-25T23:15:19.613Z,67.85
2023-03-25T23:17:49.352Z,67.94
2023-03-25T23:20:18.091Z,68.04
2023-03-25T23:22:50.743Z,67.92
2023-03-25T23:25:19.471Z,67.95
2023-03-25T23:27:47.566Z,67.94
2023-03-25T23:30:16.651Z,68.04
2023-03-25T23:32:44.875Z,68.04
2023-03-25T23:35:13.081Z,67.89
2023-03-25T23:37:41.664Z,67.83
2023-03-25T23:40:11.380Z,67.73
2023-03-25T23:42:40.364Z,67.72
2023-03-25T23:45:09.714Z,67.77
2023-03-25T23:47:38.486Z,67.84
2023-03-25T23:50:07.654Z,67.87
2023-03-25T23:52:35.928Z,67.79
2023-03-25T23:55:04.612Z,67.81
2023-03-25T23:57:33.100Z,67.83
